createdAt,value
2022-11-03T00:01:45.778Z,1.85
2022-11-03T00:04:14.557Z,1.80
2022-11-03T00:06:42.732Z,2.03
2022-11-03T00:09:12.417Z,1.65
2022-11-03T00:11:41.065Z,1.88
2022-11-03T00:14:11.591Z,2.40
2022-11-03T00:16:39.719Z,2.13
2022-11-03T00:19:08.038Z,2.15
2022-11-03T00:21:36.555Z,1.90
2022-11-03T00:24:04.476Z,1.73
2022-11-03T00:26:36.483Z,1.83
2022-11-03T00:29:16.573Z,1.73
2022-11-03T00:31:44.822Z,2.25
2022-11-03T00:34:12.022Z,1.70
2022-11-03T00:36:43.674Z,1.52
2022-11-03T00:39:11.145Z,1.77
2022-11-03T00:41:38.336Z,1.33
2022-11-03T00:44:05.672Z,1.80
2022-11-03T00:46:35.472Z,1.60
2022-11-03T00:49:04.319Z,1.67
2022-11-03T00:51:31.703Z,1.58
2022-11-03T00:54:04.117Z,1.98
2022-11-03T00:56:33.333Z,1.83
2022-11-03T00:59:01.485Z,1.50
2022-11-03T01:01:31.358Z,1.45
2022-11-03T01:04:17.710Z,1.85
2022-11-03T01:06:49.961Z,1.40
2022-11-03T01:09:18.199Z,2.03
2022-11-03T01:11:59.794Z,2.88
2022-11-03T01:14:33.586Z,1.55
2022-11-03T01:17:00.551Z,1.73
2022-11-03T01:19:28.058Z,1.88
2022-11-03T01:21:54.968Z,1.73
2022-11-03T01:24:22.148Z,1.48
2022-11-03T01:26:49.311Z,1.85
2022-11-03T01:29:16.183Z,1.95
2022-11-03T01:31:43.035Z,1.63
2022-11-03T01:34:17.892Z,1.48
2022-11-03T01:36:45.418Z,1.65
2022-11-03T01:39:17.546Z,1.92
2022-11-03T01:41:46.983Z,2.13
2022-11-03T01:44:13.712Z,1.95
2022-11-03T01:47:01.485Z,1.58
2022-11-03T01:49:52.797Z,1.67
2022-11-03T01:52:33.967Z,1.70
2022-11-03T01:57:37.306Z,1.20
2022-11-03T02:00:05.150Z,1.60
2022-11-03T02:02:40.551Z,1.75
2022-11-03T02:05:08.755Z,1.35
2022-11-03T02:07:41.736Z,1.33
2022-11-03T02:10:09.309Z,1.45
2022-11-03T02:12:37.159Z,2.47
2022-11-03T02:15:10.648Z,1.73
2022-11-03T02:17:39.674Z,1.60
2022-11-03T02:20:34.508Z,1.65
2022-11-03T02:23:10.068Z,1.50
2022-11-03T02:25:47.458Z,1.33
2022-11-03T02:28:20.807Z,1.95
2022-11-03T02:30:50.341Z,1.70
2022-11-03T02:33:32.189Z,1.60
2022-11-03T02:36:11.917Z,1.40
2022-11-03T02:38:45.404Z,1.60
2022-11-03T02:41:13.306Z,1.77
2022-11-03T02:43:41.672Z,1.77
2022-11-03T02:46:11.364Z,1.58
2022-11-03T02:48:38.336Z,1.83
2022-11-03T02:51:05.225Z,1.50
2022-11-03T02:53:39.497Z,1.67
2022-11-03T02:56:20.952Z,1.90
2022-11-03T02:58:59.265Z,1.52
2022-11-03T03:01:35.071Z,1.80
2022-11-03T03:04:06.183Z,1.65
2022-11-03T03:06:44.239Z,1.35
2022-11-03T03:09:18.349Z,1.83
2022-11-03T03:11:47.807Z,1.90
2022-11-03T03:14:22.822Z,1.30
2022-11-03T03:16:52.309Z,1.42
2022-11-03T03:19:30.094Z,1.58
2022-11-03T03:21:59.360Z,1.52
2022-11-03T03:24:38.268Z,1.33
2022-11-03T03:27:09.043Z,1.70
2022-11-03T03:29:44.432Z,1.70
2022-11-03T03:32:13.216Z,1.10
2022-11-03T03:34:43.233Z,1.55
2022-11-03T03:37:13.553Z,1.90
2022-11-03T03:39:43.950Z,1.58
2022-11-03T03:42:14.137Z,1.25
2022-11-03T03:44:42.606Z,1.48
2022-11-03T03:47:22.200Z,1.70
2022-11-03T03:49:48.962Z,1.67
2022-11-03T03:52:15.898Z,1.98
2022-11-03T03:54:42.844Z,2.00
2022-11-03T03:57:17.556Z,1.42
2022-11-03T03:59:44.969Z,1.88
2022-11-03T04:02:12.678Z,1.70
2022-11-03T04:04:39.549Z,1.70
2022-11-03T04:07:25.739Z,1.35
2022-11-03T04:09:52.599Z,1.98
2022-11-03T04:12:37.960Z,1.52
2022-11-03T04:15:23.554Z,2.60
2022-11-03T04:18:09.231Z,1.85
2022-11-03T04:20:54.979Z,1.13
2022-11-03T04:23:21.715Z,1.88
2022-11-03T04:25:52.037Z,1.55
2022-11-03T04:28:19.092Z,1.42
2022-11-03T04:30:45.846Z,1.92
2022-11-03T04:33:22.127Z,2.42
2022-11-03T04:35:49.743Z,1.95
2022-11-03T04:38:16.423Z,1.40
2022-11-03T04:40:50.561Z,2.00
2022-11-03T04:43:22.547Z,2.15
2022-11-03T04:45:50.005Z,2.00
2022-11-03T04:48:21.255Z,1.98
2022-11-03T04:50:50.244Z,2.00
2022-11-03T04:53:19.114Z,1.33
2022-11-03T04:55:48.034Z,2.38
2022-11-03T04:58:17.725Z,2.50
2022-11-03T05:00:44.681Z,2.53
2022-11-03T05:03:18.674Z,1.75
2022-11-03T05:05:45.576Z,2.20
2022-11-03T05:08:12.963Z,2.40
2022-11-03T05:10:39.871Z,3.30
2022-11-03T05:13:15.367Z,3.88
2022-11-03T05:15:44.101Z,2.38
2022-11-03T05:18:31.179Z,1.77
2022-11-03T05:21:32.256Z,1.90
2022-11-03T05:24:03.430Z,2.70
2022-11-03T05:26:33.273Z,1.83
2022-11-03T05:29:04.308Z,1.52
2022-11-03T05:34:02.027Z,1.92
2022-11-03T05:36:33.107Z,2.28
2022-11-03T05:41:30.215Z,2.05
2022-11-03T05:44:01.054Z,2.55
2022-11-03T05:46:31.245Z,2.17
2022-11-03T05:49:00.937Z,3.27
2022-11-03T05:51:41.635Z,2.50
2022-11-03T05:54:22.667Z,2.47
2022-11-03T05:56:49.915Z,1.90
2022-11-03T05:59:22.804Z,1.27
2022-11-03T06:01:50.441Z,1.83
2022-11-03T06:04:34.023Z,2.13
2022-11-03T06:07:04.507Z,1.80
2022-11-03T06:09:33.797Z,2.15
2022-11-03T06:12:05.398Z,2.00
2022-11-03T06:14:32.985Z,2.20
2022-11-03T06:17:07.264Z,1.73
2022-11-03T06:19:42.121Z,1.70
2022-11-03T06:22:20.554Z,1.45
2022-11-03T06:24:47.741Z,1.65
2022-11-03T06:27:22.302Z,1.50
2022-11-03T06:30:03.144Z,1.90
2022-11-03T06:32:30.275Z,1.90
2022-11-03T06:34:59.505Z,2.47
2022-11-03T06:37:30.982Z,2.20
2022-11-03T06:40:16.642Z,2.00
2022-11-03T06:42:43.577Z,1.40
2022-11-03T06:45:22.372Z,3.55
2022-11-03T06:47:49.728Z,2.97
2022-11-03T06:50:33.376Z,2.78
2022-11-03T06:53:04.273Z,2.20
2022-11-03T06:55:40.572Z,2.72
2022-11-03T06:58:17.145Z,2.20
2022-11-03T07:00:48.972Z,1.98
2022-11-03T07:03:27.152Z,2.80
2022-11-03T07:06:00.183Z,2.50
2022-11-03T07:08:39.928Z,2.00
2022-11-03T07:11:21.377Z,2.28
2022-11-03T07:13:50.256Z,2.45
2022-11-03T07:16:44.442Z,2.03
2022-11-03T07:19:26.295Z,2.15
2022-11-03T07:21:56.291Z,2.47
2022-11-03T07:24:32.882Z,2.30
2022-11-03T07:27:29.601Z,2.60
2022-11-03T07:30:11.273Z,2.92
2022-11-03T07:32:38.998Z,2.47
2022-11-03T07:35:17.646Z,2.35
2022-11-03T07:37:50.140Z,2.75
2022-11-03T07:40:21.590Z,1.90
2022-11-03T07:42:48.389Z,2.13
2022-11-03T07:45:41.987Z,2.10
2022-11-03T07:48:25.405Z,2.65
2022-11-03T07:50:54.896Z,2.17
2022-11-03T07:53:37.063Z,3.38
2022-11-03T07:56:20.858Z,8.20
2022-11-03T07:58:59.665Z,6.25
2022-11-03T08:01:32.015Z,8.45
2022-11-03T08:04:04.432Z,7.53
2022-11-03T08:06:31.896Z,5.70
2022-11-03T08:08:58.631Z,2.60
2022-11-03T08:11:28.082Z,2.85
2022-11-03T08:16:23.242Z,3.08
2022-11-03T08:18:49.981Z,2.88
2022-11-03T08:21:17.396Z,2.80
2022-11-03T08:23:47.296Z,3.35
2022-11-03T08:26:15.336Z,3.50
2022-11-03T08:28:42.127Z,2.78
2022-11-03T08:31:12.488Z,2.95
2022-11-03T08:33:40.345Z,2.72
2022-11-03T08:36:08.486Z,3.40
2022-11-03T08:38:35.294Z,3.20
2022-11-03T08:44:18.054Z,7.28
2022-11-03T08:46:44.799Z,6.25
2022-11-03T08:49:11.510Z,3.97
2022-11-03T08:51:43.988Z,2.80
2022-11-03T08:54:11.285Z,3.65
2022-11-03T08:56:38.045Z,3.10
2022-11-03T08:59:04.807Z,2.97
2022-11-03T09:01:31.609Z,3.47
2022-11-03T09:03:58.491Z,2.67
2022-11-03T09:06:25.346Z,2.85
2022-11-03T09:11:38.992Z,5.65
2022-11-03T09:14:05.804Z,2.72
2022-11-03T09:16:32.638Z,2.78
2022-11-03T09:18:59.413Z,2.83
2022-11-03T09:21:26.219Z,2.90
2022-11-03T09:23:52.988Z,2.70
2022-11-03T09:26:20.212Z,2.78
2022-11-03T09:28:47.001Z,4.10
2022-11-03T09:31:13.793Z,4.68
2022-11-03T09:33:40.592Z,3.30
2022-11-03T09:36:07.699Z,2.55
2022-11-03T09:38:34.412Z,3.50
2022-11-03T09:41:04.505Z,2.95
2022-11-03T09:43:36.490Z,2.30
2022-11-03T09:46:03.334Z,3.03
2022-11-03T09:48:30.082Z,2.97
2022-11-03T09:50:57.534Z,3.28
2022-11-03T09:53:24.332Z,2.63
2022-11-03T09:55:51.076Z,2.75
2022-11-03T09:58:18.497Z,2.80
2022-11-03T10:00:45.542Z,2.72
2022-11-03T10:03:14.455Z,3.47
2022-11-03T10:05:42.188Z,2.55
2022-11-03T10:08:22.968Z,3.10
2022-11-03T10:10:51.180Z,3.05
2022-11-03T10:13:39.979Z,3.70
2022-11-03T10:16:09.010Z,2.40
2022-11-03T10:18:36.653Z,2.53
2022-11-03T10:21:13.488Z,2.72
2022-11-03T10:23:40.321Z,3.00
2022-11-03T10:26:19.053Z,2.78
2022-11-03T10:29:04.352Z,2.47
2022-11-03T10:31:39.531Z,3.03
2022-11-03T10:34:23.519Z,2.40
2022-11-03T10:36:50.866Z,3.47
2022-11-03T10:39:30.693Z,2.90
2022-11-03T10:41:59.105Z,3.20
2022-11-03T10:44:30.312Z,2.63
2022-11-03T10:47:01.073Z,2.70
2022-11-03T10:49:30.514Z,3.08
2022-11-03T10:52:25.171Z,3.00
2022-11-03T10:54:54.579Z,2.72
2022-11-03T10:57:22.848Z,2.83
2022-11-03T10:59:53.105Z,3.15
2022-11-03T11:02:23.053Z,2.72
2022-11-03T11:05:01.483Z,2.90
2022-11-03T11:07:38.412Z,2.90
2022-11-03T11:10:20.016Z,3.42
2022-11-03T11:13:05.936Z,2.45
2022-11-03T11:15:50.136Z,2.78
2022-11-03T11:18:29.219Z,2.67
2022-11-03T11:21:01.155Z,2.67
2022-11-03T11:23:27.839Z,3.50
2022-11-03T11:26:10.223Z,2.30
2022-11-03T11:28:41.370Z,3.08
2022-11-03T11:34:36.959Z,2.22
2022-11-03T11:37:07.345Z,2.35
2022-11-03T11:39:35.845Z,2.53
2022-11-03T11:42:12.171Z,2.25
2022-11-03T11:44:54.650Z,2.55
2022-11-03T11:47:46.181Z,2.35
2022-11-03T11:50:16.435Z,2.30
2022-11-03T11:52:48.579Z,2.22
2022-11-03T11:55:31.498Z,2.25
2022-11-03T11:58:00.548Z,2.25
2022-11-03T12:00:30.921Z,2.30
2022-11-03T12:02:59.449Z,2.67
2022-11-03T12:05:30.591Z,2.50
2022-11-03T12:07:57.923Z,2.30
2022-11-03T12:10:27.713Z,2.88
2022-11-03T12:12:56.136Z,2.35
2022-11-03T12:16:08.126Z,2.03
2022-11-03T12:18:49.345Z,2.88
2022-11-03T12:21:46.403Z,2.60
2022-11-03T12:24:49.668Z,2.42
2022-11-03T12:27:25.584Z,2.53
2022-11-03T12:29:57.302Z,2.20
2022-11-03T12:32:33.749Z,1.73
2022-11-03T12:35:08.092Z,2.00
2022-11-03T12:37:35.078Z,1.60
2022-11-03T12:40:01.875Z,1.92
2022-11-03T12:42:28.669Z,1.90
2022-11-03T12:44:55.944Z,2.13
2022-11-03T12:47:22.911Z,2.20
2022-11-03T12:49:49.672Z,1.90
2022-11-03T12:52:16.547Z,1.67
2022-11-03T12:54:43.348Z,1.60
2022-11-03T12:57:10.240Z,1.73
2022-11-03T12:59:37.083Z,1.90
2022-11-03T13:02:04.137Z,2.20
2022-11-03T13:04:31.004Z,1.95
2022-11-03T13:06:57.788Z,2.10
2022-11-03T13:09:24.547Z,2.03
2022-11-03T13:12:14.569Z,1.98
2022-11-03T13:14:45.935Z,2.13
2022-11-03T13:17:14.931Z,2.22
2022-11-03T13:19:41.791Z,2.20
2022-11-03T13:22:08.570Z,1.80
2022-11-03T13:24:35.329Z,1.73
2022-11-03T13:27:02.065Z,2.13
2022-11-03T13:29:34.011Z,1.77
2022-11-03T13:32:03.482Z,1.80
2022-11-03T13:34:30.443Z,2.60
2022-11-03T13:36:57.322Z,1.95
2022-11-03T13:39:24.114Z,2.40
2022-11-03T13:41:51.069Z,1.95
2022-11-03T13:44:17.817Z,2.13
2022-11-03T13:46:44.551Z,1.90
2022-11-03T13:51:58.165Z,1.38
2022-11-03T14:00:01.967Z,1.70
2022-11-03T14:05:26.054Z,2.08
2022-11-03T14:07:52.962Z,1.88
2022-11-03T14:10:19.716Z,1.63
2022-11-03T14:12:46.481Z,2.38
2022-11-03T14:15:13.382Z,1.58
2022-11-03T14:17:40.843Z,2.15
2022-11-03T14:20:11.139Z,2.15
2022-11-03T14:22:38.009Z,1.92
2022-11-03T14:25:05.419Z,2.17
2022-11-03T14:27:32.302Z,1.55
2022-11-03T14:29:59.115Z,1.60
2022-11-03T14:32:25.863Z,2.25
2022-11-03T14:34:52.640Z,2.08
2022-11-03T14:37:19.521Z,1.63
2022-11-03T14:39:46.315Z,1.25
2022-11-03T14:42:16.978Z,1.80
2022-11-03T14:44:46.076Z,1.33
2022-11-03T14:47:17.945Z,1.90
2022-11-03T14:49:45.852Z,1.70
2022-11-03T14:52:12.922Z,3.22
2022-11-03T14:54:40.137Z,14.35
2022-11-03T14:57:07.054Z,9.43
2022-11-03T14:59:53.528Z,3.58
2022-11-03T15:02:40.989Z,2.20
2022-11-03T15:05:46.362Z,2.28
2022-11-03T15:08:33.588Z,2.10
2022-11-03T15:11:20.623Z,1.80
2022-11-03T15:14:08.490Z,1.85
2022-11-03T15:16:55.543Z,1.90
2022-11-03T15:19:42.897Z,2.13
2022-11-03T15:25:36.283Z,1.75
2022-11-03T15:28:03.321Z,1.95
2022-11-03T15:30:30.175Z,1.90
2022-11-03T15:32:57.643Z,1.98
2022-11-03T15:35:24.725Z,1.75
2022-11-03T15:37:51.832Z,1.98
2022-11-03T15:40:18.624Z,2.05
2022-11-03T15:42:45.389Z,1.80
2022-11-03T15:45:14.414Z,1.70
2022-11-03T15:47:41.283Z,1.88
2022-11-03T15:50:09.850Z,2.13
2022-11-03T15:52:37.230Z,1.92
2022-11-03T15:55:07.893Z,1.80
2022-11-03T15:57:35.120Z,1.70
2022-11-03T16:00:02.475Z,2.10
2022-11-03T16:02:46.282Z,1.77
2022-11-03T16:05:13.754Z,1.98
2022-11-03T16:07:40.601Z,1.90
2022-11-03T16:10:07.736Z,1.58
2022-11-03T16:12:36.073Z,2.10
2022-11-03T16:15:03.412Z,1.70
2022-11-03T16:17:30.244Z,2.05
2022-11-03T16:19:57.004Z,1.92
2022-11-03T16:22:23.787Z,1.88
2022-11-03T16:24:50.530Z,2.13
2022-11-03T16:27:17.508Z,2.25
2022-11-03T16:29:44.244Z,2.08
2022-11-03T16:32:11.034Z,1.80
2022-11-03T16:34:37.850Z,1.55
2022-11-03T16:37:04.961Z,2.00
2022-11-03T16:39:31.759Z,2.05
2022-11-03T16:45:18.374Z,1.90
2022-11-03T16:47:46.540Z,2.10
2022-11-03T16:50:13.372Z,2.72
2022-11-03T16:52:40.130Z,1.83
2022-11-03T16:55:07.418Z,1.92
2022-11-03T16:57:34.241Z,2.10
2022-11-03T17:00:00.986Z,2.33
2022-11-03T17:02:28.022Z,3.05
2022-11-03T17:04:55.089Z,2.63
2022-11-03T17:07:21.839Z,2.60
2022-11-03T17:09:48.604Z,2.33
2022-11-03T17:12:15.499Z,2.28
2022-11-03T17:14:42.315Z,2.38
2022-11-03T17:17:09.070Z,2.65
2022-11-03T17:19:35.825Z,2.15
2022-11-03T17:22:02.549Z,3.10
2022-11-03T17:24:29.575Z,2.67
2022-11-03T17:27:04.308Z,2.63
2022-11-03T17:29:37.170Z,2.55
2022-11-03T17:32:29.920Z,3.17
2022-11-03T17:34:58.198Z,2.80
2022-11-03T17:37:26.206Z,2.55
2022-11-03T17:39:53.125Z,2.90
2022-11-03T17:42:24.588Z,2.83
2022-11-03T17:44:56.184Z,5.90
2022-11-03T17:47:24.183Z,4.45
2022-11-03T17:49:51.319Z,3.20
2022-11-03T17:52:24.908Z,3.28
2022-11-03T17:54:57.266Z,2.97
2022-11-03T17:57:24.941Z,3.17
2022-11-03T17:59:54.742Z,3.50
2022-11-03T18:02:24.711Z,3.75
2022-11-03T18:04:57.688Z,4.50
2022-11-03T18:07:26.934Z,4.13
2022-11-03T18:09:54.317Z,6.70
2022-11-03T18:12:43.624Z,12.43
2022-11-03T18:15:16.285Z,6.80
2022-11-03T18:17:43.104Z,5.55
2022-11-03T18:20:23.975Z,4.60
2022-11-03T18:22:50.746Z,3.78
2022-11-03T18:25:20.356Z,4.78
2022-11-03T18:27:47.749Z,4.03
2022-11-03T18:30:18.755Z,7.43
2022-11-03T18:35:21.304Z,4.93
2022-11-03T18:37:48.271Z,3.90
2022-11-03T18:40:15.383Z,4.38
2022-11-03T18:42:42.164Z,4.90
2022-11-03T18:45:14.645Z,3.80
2022-11-03T18:47:42.449Z,4.28
2022-11-03T18:50:14.562Z,4.20
2022-11-03T18:52:44.874Z,4.75
2022-11-03T18:55:12.675Z,6.82
2022-11-03T18:57:40.137Z,5.47
2022-11-03T19:00:16.286Z,5.57
2022-11-03T19:02:43.156Z,4.97
2022-11-03T19:05:13.771Z,5.82
2022-11-03T19:07:43.365Z,5.07
2022-11-03T19:10:13.508Z,5.65
2022-11-03T19:12:44.441Z,5.57
2022-11-03T19:15:20.876Z,6.28
2022-11-03T19:17:49.944Z,7.35
2022-11-03T19:20:18.313Z,8.38
2022-11-03T19:22:46.202Z,6.05
2022-11-03T19:25:14.640Z,6.05
2022-11-03T19:27:45.057Z,5.22
2022-11-03T19:30:14.998Z,5.90
2022-11-03T19:32:47.268Z,4.85
2022-11-03T19:35:22.974Z,7.60
2022-11-03T19:37:55.210Z,6.38
2022-11-03T19:40:22.113Z,6.07
2022-11-03T19:42:48.954Z,5.18
2022-11-03T19:45:18.552Z,4.90
2022-11-03T19:48:22.392Z,4.47
2022-11-03T19:50:37.932Z,4.60
2022-11-03T19:53:06.818Z,4.13
2022-11-03T19:55:40.361Z,3.35
2022-11-03T19:58:15.414Z,4.30
2022-11-03T20:00:43.192Z,4.30
2022-11-03T20:03:10.134Z,3.55
2022-11-03T20:05:37.506Z,3.28
2022-11-03T20:08:07.591Z,3.88
2022-11-03T20:10:36.075Z,4.57
2022-11-03T20:13:04.102Z,3.78
2022-11-03T20:15:31.016Z,3.53
2022-11-03T20:17:57.874Z,4.15
2022-11-03T20:20:35.802Z,4.78
2022-11-03T20:23:05.061Z,3.83
2022-11-03T20:25:37.181Z,3.70
2022-11-03T20:28:22.015Z,4.68
2022-11-03T20:30:49.949Z,4.32
2022-11-03T20:33:19.663Z,3.33
2022-11-03T20:35:47.570Z,3.55
2022-11-03T20:38:17.638Z,3.45
2022-11-03T20:40:44.926Z,2.80
2022-11-03T20:43:24.341Z,3.08
2022-11-03T20:45:51.090Z,3.92
2022-11-03T20:48:17.945Z,3.70
2022-11-03T20:50:44.908Z,2.83
2022-11-03T20:53:16.985Z,3.17
2022-11-03T20:55:44.139Z,3.15
2022-11-03T20:58:16.054Z,3.83
2022-11-03T21:00:44.367Z,3.35
2022-11-03T21:03:45.139Z,3.00
2022-11-03T21:06:15.663Z,3.42
2022-11-03T21:08:47.254Z,3.70
2022-11-03T21:11:29.228Z,3.88
2022-11-03T21:14:01.826Z,3.55
2022-11-03T21:16:48.682Z,3.83
2022-11-03T21:19:43.251Z,3.95
2022-11-03T21:22:38.258Z,2.85
2022-11-03T21:25:10.481Z,4.28
2022-11-03T21:27:39.302Z,5.10
2022-11-03T21:30:11.183Z,3.88
2022-11-03T21:32:38.082Z,3.78
2022-11-03T21:35:06.271Z,4.10
2022-11-03T21:37:33.053Z,4.05
2022-11-03T21:39:59.880Z,3.63
2022-11-03T21:42:56.273Z,4.50
2022-11-03T21:45:23.094Z,3.70
2022-11-03T21:48:13.169Z,4.60
2022-11-03T21:50:41.207Z,4.40
2022-11-03T21:53:08.446Z,4.28
2022-11-03T21:55:35.921Z,4.53
2022-11-03T21:58:03.609Z,4.10
2022-11-03T22:00:30.979Z,4.65
2022-11-03T22:02:58.979Z,4.47
2022-11-03T22:05:26.503Z,4.35
2022-11-03T22:07:53.376Z,4.18
2022-11-03T22:10:20.554Z,4.57
2022-11-03T22:12:47.321Z,3.72
2022-11-03T22:15:32.915Z,4.07
2022-11-03T22:18:04.961Z,3.65
2022-11-03T22:20:50.885Z,4.47
2022-11-03T22:23:36.206Z,4.40
2022-11-03T22:26:21.617Z,4.63
2022-11-03T22:29:11.134Z,4.25
2022-11-03T22:31:40.642Z,3.38
2022-11-03T22:34:26.231Z,3.70
2022-11-03T22:36:53.487Z,4.43
2022-11-03T22:39:39.058Z,4.75
2022-11-03T22:42:24.785Z,3.92
2022-11-03T22:45:10.355Z,3.50
2022-11-03T22:47:37.174Z,4.00
2022-11-03T22:50:04.361Z,3.97
2022-11-03T22:52:31.148Z,3.97
2022-11-03T22:54:57.930Z,4.88
2022-11-03T22:57:24.705Z,3.70
2022-11-03T22:59:51.531Z,4.80
2022-11-03T23:02:18.515Z,3.85
2022-11-03T23:04:46.844Z,4.25
2022-11-03T23:07:13.624Z,4.28
2022-11-03T23:09:40.468Z,3.78
2022-11-03T23:12:07.415Z,4.05
2022-11-03T23:14:57.205Z,3.92
2022-11-03T23:17:44.019Z,3.72
2022-11-03T23:20:29.632Z,3.58
2022-11-03T23:22:56.442Z,4.03
2022-11-03T23:25:23.243Z,3.75
2022-11-03T23:27:50.251Z,3.55
2022-11-03T23:30:17.039Z,3.63
2022-11-03T23:32:43.884Z,3.45
2022-11-03T23:35:10.725Z,3.97
2022-11-03T23:37:37.578Z,3.65
2022-11-03T23:40:04.547Z,3.60
2022-11-03T23:42:31.412Z,4.05
2022-11-03T23:45:16.732Z,3.42
2022-11-03T23:48:02.104Z,3.58
2022-11-03T23:50:29.087Z,3.55
2022-11-03T23:52:55.829Z,4.15
2022-11-03T23:55:22.646Z,3.13
2022-11-03T23:58:08.113Z,3.72
